Time;durP1;ratioP1;P1;durP2;ratioP2;P2;SDS_P1;SDS_P2;PMS_P1;PMS_P2;Temp;Humidity;BMP_temperature;BMP_pressure;BME280_temperature;BME280_humidity;BME280_pressure;Samples;Min_cycle;Max_cycle;Signal;HPM_P1;HPM_P2
2023/04/03 00:01:29;;;;;;;26.13;18.38;;;;;;;12.46;52.60;102854.06;4993769;28;20498;-73
2023/04/03 00:03:55;;;;;;;17.73;16.73;;;;;;;12.45;52.64;102853.22;4994395;28;20037;-73
2023/04/03 00:06:21;;;;;;;19.98;18.67;;;;;;;12.43;52.69;102852.59;5009981;28;20480;-73
2023/04/03 00:08:47;;;;;;;19.73;18.63;;;;;;;12.43;52.76;102851.75;5008709;28;20517;-73
2023/04/03 00:11:12;;;;;;;18.92;17.83;;;;;;;12.41;52.60;102851.94;4994336;28;20038;-73
2023/04/03 00:13:39;;;;;;;18.48;17.35;;;;;;;12.40;52.63;102860.28;4993299;28;20042;-73
2023/04/03 00:16:05;;;;;;;18.48;17.48;;;;;;;12.37;52.54;102858.78;4994412;28;20046;-73
2023/04/03 00:18:31;;;;;;;22.08;20.08;;;;;;;12.36;52.62;102857.13;4996284;28;20038;-73
2023/04/03 00:20:57;;;;;;;19.00;17.42;;;;;;;12.34;52.58;102865.47;4987240;28;20397;-73
2023/04/03 00:23:23;;;;;;;19.77;18.25;;;;;;;12.33;52.68;102868.41;5003714;28;20089;-73
2023/04/03 00:25:49;;;;;;;18.67;17.63;;;;;;;12.32;52.33;102869.41;4993505;28;20435;-73
2023/04/03 00:28:15;;;;;;;19.52;18.10;;;;;;;12.30;52.80;102866.09;4994718;28;20057;-73
2023/04/03 00:30:40;;;;;;;21.27;19.83;;;;;;;12.27;52.82;102870.03;4999913;28;20462;-73
2023/04/03 00:33:06;;;;;;;20.63;19.05;;;;;;;12.26;52.73;102865.66;5013153;28;20041;-73
2023/04/03 00:35:31;;;;;;;19.33;18.08;;;;;;;12.26;52.68;102865.66;5012531;28;20390;-73
2023/04/03 00:37:57;;;;;;;18.30;17.20;;;;;;;12.24;52.63;102865.00;5013142;28;20061;-73
2023/04/03 00:40:26;;;;;;;19.20;18.08;;;;;;;12.23;52.54;102874.19;4993666;28;20030;-73
2023/04/03 00:42:56;;;;;;;18.45;17.35;;;;;;;12.21;52.52;102875.41;5012163;28;20042;-74
2023/04/03 00:45:37;;;;;;;18.73;17.50;;;;;;;12.18;52.48;102871.25;5011583;28;20085;-72
2023/04/03 00:48:06;;;;;;;18.73;17.50;;;;;;;12.16;52.83;102867.91;5012827;28;20038;-73
2023/04/03 00:50:35;;;;;;;19.17;18.00;;;;;;;12.15;52.77;102874.38;5003709;28;20030;-73
2023/04/03 00:53:01;;;;;;;17.95;16.85;;;;;;;12.13;52.69;102879.97;4993475;28;20077;-72
2023/04/03 00:55:27;;;;;;;19.38;17.80;;;;;;;12.11;52.59;102884.75;4993062;28;20102;-73
2023/04/03 00:57:54;;;;;;;18.00;17.00;;;;;;;12.12;52.51;102888.31;4993179;28;20042;-72
2023/04/03 01:00:22;;;;;;;19.00;17.77;;;;;;;12.11;52.53;102889.34;4997796;28;20394;-78
2023/04/03 01:02:48;;;;;;;19.15;18.15;;;;;;;12.09;52.67;102885.97;4993219;28;20118;-73
2023/04/03 01:05:16;;;;;;;19.33;18.08;;;;;;;12.08;52.45;102881.63;4992848;28;20565;-73
2023/04/03 01:07:41;;;;;;;19.17;18.08;;;;;;;12.07;52.59;102885.34;4993109;28;20061;-72
2023/04/03 01:10:10;;;;;;;18.83;17.73;;;;;;;12.04;52.41;102883.88;4995495;28;20065;-73
2023/04/03 01:12:41;;;;;;;19.83;18.33;;;;;;;12.03;52.50;102884.91;4998923;28;20034;-72
2023/04/03 01:15:10;;;;;;;18.42;16.83;;;;;;;12.01;52.64;102884.28;4993492;28;20045;-72
2023/04/03 01:17:43;;;;;;;19.55;18.23;;;;;;;12.01;52.35;102883.44;4992861;28;20061;-73
2023/04/03 01:20:24;;;;;;;18.90;17.60;;;;;;;11.97;52.44;102884.88;4977617;28;20048;-74
2023/04/03 01:23:07;;;;;;;18.55;17.45;;;;;;;11.95;52.48;102881.53;5010706;28;20503;-73
2023/04/03 01:25:33;;;;;;;17.73;16.63;;;;;;;11.93;52.57;102879.03;4996173;28;20397;-72
2023/04/03 01:27:59;;;;;;;16.92;15.95;;;;;;;11.93;52.63;102880.91;4992859;28;20042;-72
2023/04/03 01:30:32;;;;;;;18.38;17.17;;;;;;;11.91;52.74;102881.09;5011184;28;20030;-77
2023/04/03 01:32:58;;;;;;;19.10;18.00;;;;;;;11.90;52.59;102874.00;5009092;28;20041;-72
2023/04/03 01:35:23;;;;;;;18.00;16.77;;;;;;;11.88;52.62;102866.06;4994232;28;20367;-72
2023/04/03 01:37:48;;;;;;;17.85;16.33;;;;;;;11.87;52.52;102877.97;5000709;28;20039;-73
2023/04/03 01:40:14;;;;;;;17.83;16.83;;;;;;;11.87;52.57;102877.13;4974882;28;20045;-72
2023/04/03 01:42:39;;;;;;;18.08;16.88;;;;;;;11.85;52.56;102876.47;5004546;28;20149;-72
2023/04/03 01:45:05;;;;;;;17.45;16.55;;;;;;;11.83;52.50;102879.34;5000062;28;20097;-72
2023/04/03 01:47:30;;;;;;;17.90;16.83;;;;;;;11.82;52.57;102879.56;4997290;28;20426;-72
2023/04/03 01:49:56;;;;;;;18.27;16.95;;;;;;;11.81;52.45;102876.00;5010748;28;20489;-72
2023/04/03 01:52:21;;;;;;;19.00;17.90;;;;;;;11.80;52.39;102877.03;5008273;28;20512;-72
2023/04/03 01:54:47;;;;;;;18.30;17.35;;;;;;;11.79;52.50;102883.50;4999565;28;20113;-73
2023/04/03 01:57:14;;;;;;;17.98;16.98;;;;;;;11.77;52.34;102882.88;5010317;28;20133;-72
2023/04/03 01:59:40;;;;;;;18.70;17.48;;;;;;;11.76;52.43;102883.88;5010222;28;20029;-72
2023/04/03 02:02:05;;;;;;;17.52;16.58;;;;;;;11.75;52.46;102884.94;5011421;28;20041;-72
2023/04/03 02:04:31;;;;;;;17.77;16.63;;;;;;;11.74;52.44;102887.81;4989287;28;20117;-72
2023/04/03 02:06:56;;;;;;;16.83;15.93;;;;;;;11.72;52.53;102889.88;5011729;28;20030;-72
2023/04/03 02:09:21;;;;;;;17.73;16.75;;;;;;;11.70;52.65;102885.50;5011207;28;20033;-72
2023/04/03 02:11:47;;;;;;;18.70;17.45;;;;;;;11.69;52.53;102888.41;5009990;28;20099;-72
2023/04/03 02:14:12;;;;;;;18.88;17.58;;;;;;;11.68;52.79;102893.00;5001209;28;20088;-72
2023/04/03 02:16:38;;;;;;;18.55;17.27;;;;;;;11.67;52.56;102895.91;4991256;28;20059;-72
2023/04/03 02:19:03;;;;;;;17.33;16.33;;;;;;;11.66;52.54;102886.09;4991558;28;20037;-73
2023/04/03 02:21:29;;;;;;;17.15;16.15;;;;;;;11.64;52.63;102901.69;4991582;28;20478;-78
2023/04/03 02:23:54;;;;;;;17.25;16.35;;;;;;;11.63;52.55;102902.75;4984164;28;20068;-72
2023/04/03 02:26:20;;;;;;;17.10;15.98;;;;;;;11.61;52.45;102893.97;5001602;28;20433;-73
2023/04/03 02:28:46;;;;;;;18.77;17.58;;;;;;;11.60;52.66;102897.72;4991435;28;20037;-72
2023/04/03 02:31:11;;;;;;;18.13;17.02;;;;;;;11.58;52.60;102906.03;4991798;28;20030;-72
2023/04/03 02:33:37;;;;;;;19.13;17.67;;;;;;;11.58;52.55;102905.22;4996176;28;20034;-73
2023/04/03 02:36:04;;;;;;;17.45;16.45;;;;;;;11.56;52.56;102907.25;4990799;28;20034;-73
2023/04/03 02:38:30;;;;;;;17.38;16.38;;;;;;;11.55;52.51;102903.72;4993551;28;20046;-79
2023/04/03 02:41:10;;;;;;;18.08;16.95;;;;;;;11.53;52.54;102908.50;4973993;28;20062;-73
2023/04/03 02:43:36;;;;;;;17.98;16.83;;;;;;;11.51;52.35;102907.84;4992553;28;20085;-79
2023/04/03 02:46:02;;;;;;;17.02;15.85;;;;;;;11.50;52.61;102911.59;5006610;28;20121;-72
2023/04/03 02:48:28;;;;;;;16.38;15.48;;;;;;;11.50;52.62;102916.19;4992202;28;20146;-73
2023/04/03 02:50:53;;;;;;;16.48;15.57;;;;;;;11.48;52.50;102909.06;5010002;28;20487;-73
2023/04/03 02:53:19;;;;;;;18.20;17.20;;;;;;;11.46;52.59;102908.47;5006446;28;20038;-73
2023/04/03 02:55:45;;;;;;;18.15;16.85;;;;;;;11.46;52.43;102915.72;4987084;28;20061;-73
2023/04/03 02:58:11;;;;;;;17.25;16.15;;;;;;;11.43;52.68;102914.25;5011011;28;20088;-73
2023/04/03 03:00:37;;;;;;;17.75;16.60;;;;;;;11.42;52.54;102909.03;5010560;28;20049;-73
2023/04/03 03:03:02;;;;;;;16.40;15.50;;;;;;;11.41;52.54;102904.66;4995169;28;20389;-73
2023/04/03 03:05:28;;;;;;;16.25;15.35;;;;;;;11.39;52.25;102912.97;5011083;28;20037;-73
2023/04/03 03:07:53;;;;;;;16.27;15.38;;;;;;;11.38;52.60;102911.28;5003874;28;20359;-72
2023/04/03 03:10:20;;;;;;;16.90;15.90;;;;;;;11.38;52.57;102907.75;4995610;28;20054;-73
2023/04/03 03:12:45;;;;;;;20.20;18.80;;;;;;;11.36;52.42;102907.09;4995045;28;20038;-72
2023/04/03 03:15:11;;;;;;;17.67;16.67;;;;;;;11.35;52.49;102906.28;4999415;28;20034;-73
2023/04/03 03:17:36;;;;;;;16.70;15.68;;;;;;;11.34;52.48;102909.16;5012154;28;20394;-72
2023/04/03 03:20:03;;;;;;;16.95;16.00;;;;;;;11.33;52.58;102921.03;4993286;28;20026;-73
2023/04/03 03:22:29;;;;;;;15.77;14.90;;;;;;;11.31;52.61;102913.09;4978063;28;20035;-73
2023/04/03 03:24:54;;;;;;;17.42;16.38;;;;;;;11.29;52.53;102917.88;4977682;28;20033;-73
2023/04/03 03:27:20;;;;;;;18.02;16.92;;;;;;;11.28;52.61;102916.19;4993995;28;20029;-73
2023/04/03 03:29:46;;;;;;;18.67;17.58;;;;;;;11.26;52.52;102921.81;4994380;28;20117;-73
2023/04/03 03:32:11;;;;;;;17.67;16.73;;;;;;;11.25;52.46;102919.28;4995750;28;20050;-73
2023/04/03 03:34:36;;;;;;;17.58;16.42;;;;;;;11.23;52.59;102914.06;4994912;28;20386;-73
2023/04/03 03:37:02;;;;;;;16.95;15.35;;;;;;;11.22;52.46;102922.38;5004580;28;20118;-73
2023/04/03 03:39:28;;;;;;;18.17;17.08;;;;;;;11.21;52.53;102918.00;5011608;28;20062;-72
2023/04/03 03:41:53;;;;;;;17.88;16.67;;;;;;;11.20;52.55;102922.56;4994799;28;20034;-72
2023/04/03 03:44:19;;;;;;;14.98;14.18;;;;;;;11.18;52.53;102927.31;4994919;28;20065;-73
2023/04/03 03:46:45;;;;;;;17.05;15.95;;;;;;;11.17;52.52;102941.91;5004868;28;20045;-74
2023/04/03 03:49:11;;;;;;;16.05;15.07;;;;;;;11.15;52.26;102935.84;5006269;28;20041;-73
2023/04/03 03:51:37;;;;;;;18.55;14.95;;;;;;;11.14;52.52;102939.59;4994811;28;20087;-76
2023/04/03 03:54:03;;;;;;;15.90;14.90;;;;;;;11.13;52.37;102935.19;4994961;28;20173;-73
2023/04/03 03:56:29;;;;;;;16.58;15.68;;;;;;;11.11;52.54;102937.25;4996414;28;20113;-74
2023/04/03 03:58:56;;;;;;;17.75;16.58;;;;;;;11.11;52.51;102941.81;5000106;28;20137;-72
2023/04/03 04:01:22;;;;;;;15.90;15.00;;;;;;;11.10;52.49;102941.00;4992607;28;20057;-72
2023/04/03 04:03:48;;;;;;;19.02;17.70;;;;;;;11.08;52.41;102934.94;4993763;28;20392;-73
2023/04/03 04:06:13;;;;;;;15.93;15.07;;;;;;;11.07;52.62;102935.97;4977376;28;20027;-73
2023/04/03 04:08:39;;;;;;;17.35;16.35;;;;;;;11.05;52.67;102929.91;5005287;28;20143;-78
2023/04/03 04:11:05;;;;;;;15.02;14.23;;;;;;;11.03;52.53;102938.19;5004115;28;20464;-74
2023/04/03 04:13:30;;;;;;;16.38;15.48;;;;;;;11.03;52.53;102934.66;4995714;28;20438;-71
2023/04/03 04:15:55;;;;;;;17.85;16.75;;;;;;;11.01;52.47;102934.88;5012366;28;20596;-71
2023/04/03 04:18:22;;;;;;;16.52;15.43;;;;;;;11.00;52.50;102944.00;5012787;28;20030;-71
2023/04/03 04:20:48;;;;;;;17.02;16.00;;;;;;;10.98;52.35;102935.25;5001700;28;20038;-73
2023/04/03 04:23:14;;;;;;;16.00;14.55;;;;;;;10.97;52.35;102940.84;5010685;28;20144;-73
2023/04/03 04:25:39;;;;;;;16.02;15.02;;;;;;;10.96;52.60;102936.47;4993682;28;20177;-78
2023/04/03 04:28:05;;;;;;;14.88;14.07;;;;;;;10.93;52.56;102940.38;5001803;28;20038;-72
2023/04/03 04:30:30;;;;;;;15.40;14.50;;;;;;;10.93;52.45;102934.16;5012593;28;20033;-72
2023/04/03 04:32:56;;;;;;;16.90;15.82;;;;;;;10.92;52.46;102936.00;5010167;28;20157;-73
2023/04/03 04:35:21;;;;;;;15.52;14.68;;;;;;;10.91;52.54;102942.47;4994164;28;20132;-72
2023/04/03 04:37:46;;;;;;;17.80;16.70;;;;;;;10.90;52.49;102942.66;4994081;28;20035;-73
2023/04/03 04:40:12;;;;;;;17.38;16.33;;;;;;;10.89;52.44;102938.28;5009982;28;20037;-73
2023/04/03 04:42:37;;;;;;;16.77;15.88;;;;;;;10.87;52.52;102943.03;5012605;28;20449;-72
2023/04/03 04:45:03;;;;;;;15.20;14.40;;;;;;;10.86;52.50;102947.59;4994677;28;20061;-72
2023/04/03 04:47:29;;;;;;;17.02;16.10;;;;;;;10.85;52.50;102953.19;5013166;28;20387;-73
2023/04/03 04:49:55;;;;;;;17.65;16.55;;;;;;;10.83;52.53;102951.53;5001249;28;20418;-75
2023/04/03 04:52:20;;;;;;;15.90;15.00;;;;;;;10.82;52.41;102941.72;5006659;28;20041;-73
2023/04/03 04:54:46;;;;;;;17.70;16.63;;;;;;;10.81;52.62;102950.88;4976533;28;20042;-73
2023/04/03 04:57:11;;;;;;;15.55;14.65;;;;;;;10.79;52.34;102952.94;4993531;28;20029;-73
2023/04/03 04:59:36;;;;;;;16.60;15.63;;;;;;;10.79;52.58;102957.50;5000885;28;20030;-73
2023/04/03 05:02:02;;;;;;;15.65;14.65;;;;;;;10.77;52.63;102960.38;5009127;28;20038;-73
2023/04/03 05:04:27;;;;;;;15.73;14.90;;;;;;;10.76;52.50;102965.97;5012246;28;20562;-72
2023/04/03 05:06:53;;;;;;;18.08;16.98;;;;;;;10.75;52.42;102958.91;4984135;28;20030;-73
2023/04/03 05:09:19;;;;;;;15.63;14.50;;;;;;;10.73;52.34;102969.88;5003895;28;20129;-72
2023/04/03 05:11:45;;;;;;;16.13;15.23;;;;;;;10.72;52.51;102965.53;4979282;28;20045;-79
2023/04/03 05:14:11;;;;;;;15.65;14.75;;;;;;;10.71;52.40;102965.69;4981659;28;20386;-74
2023/04/03 05:16:36;;;;;;;15.70;14.80;;;;;;;10.70;52.50;102972.97;5003218;28;20084;-75
2023/04/03 05:19:02;;;;;;;17.02;15.93;;;;;;;10.69;52.43;102975.88;5011693;28;20433;-75
2023/04/03 05:21:31;;;;;;;16.13;15.20;;;;;;;10.67;52.59;102975.22;4974931;28;20039;-74
2023/04/03 05:23:57;;;;;;;17.35;16.10;;;;;;;10.65;52.47;102983.50;4994943;28;20034;-73
2023/04/03 05:26:22;;;;;;;14.13;13.32;;;;;;;10.64;52.42;102976.44;5000524;28;20037;-74
2023/04/03 05:28:48;;;;;;;16.00;14.88;;;;;;;10.63;52.47;102979.31;5011587;28;20030;-73
2023/04/03 05:31:13;;;;;;;15.40;14.50;;;;;;;10.62;52.42;102981.19;5006310;28;20031;-73
2023/04/03 05:33:38;;;;;;;15.80;15.00;;;;;;;10.61;52.49;102976.84;4999845;28;20300;-72
2023/04/03 05:36:05;;;;;;;16.20;15.20;;;;;;;10.59;52.44;102976.16;5009582;28;20030;-74
2023/04/03 05:38:30;;;;;;;15.65;14.60;;;;;;;10.57;52.43;102979.06;5003472;28;20085;-73
2023/04/03 05:40:55;;;;;;;17.60;16.45;;;;;;;10.56;52.52;102980.09;4999301;28;20033;-72
2023/04/03 05:43:21;;;;;;;16.13;15.07;;;;;;;10.55;52.48;102980.25;5005597;28;20038;-74
2023/04/03 05:45:47;;;;;;;15.73;14.82;;;;;;;10.54;52.41;102979.44;5005919;28;20054;-78
2023/04/03 05:48:13;;;;;;;16.30;15.30;;;;;;;10.53;52.46;102979.59;4998485;28;20065;-73
2023/04/03 05:50:41;;;;;;;15.65;14.75;;;;;;;10.51;52.45;102985.22;4993747;28;20066;-74
2023/04/03 05:53:10;;;;;;;16.50;15.50;;;;;;;10.50;52.42;102994.34;5002939;28;20137;-72
2023/04/03 05:55:36;;;;;;;14.70;13.80;;;;;;;10.49;52.50;102987.25;5001263;28;20034;-75
2023/04/03 05:58:01;;;;;;;15.93;14.93;;;;;;;10.48;52.36;102992.84;4991735;28;20380;-73
2023/04/03 06:00:27;;;;;;;15.68;14.80;;;;;;;10.47;52.36;102991.19;4990065;28;20034;-73
2023/04/03 06:02:52;;;;;;;15.68;14.73;;;;;;;10.46;52.47;102993.06;5001092;28;20026;-73
2023/04/03 06:05:18;;;;;;;16.10;14.90;;;;;;;10.44;52.52;102997.78;4997991;28;20124;-72
2023/04/03 06:07:44;;;;;;;15.10;14.30;;;;;;;10.44;52.40;103000.50;4991897;28;20027;-73
2023/04/03 06:10:12;;;;;;;15.73;14.82;;;;;;;10.43;52.41;102997.97;4991418;28;20031;-73
2023/04/03 06:12:37;;;;;;;16.65;15.38;;;;;;;10.42;52.27;103002.53;5000394;28;20410;-73
2023/04/03 06:15:03;;;;;;;15.50;14.50;;;;;;;10.40;52.36;103001.88;5007044;28;20071;-73
2023/04/03 06:17:29;;;;;;;14.57;13.68;;;;;;;10.38;52.29;103004.78;5001787;28;20027;-73
2023/04/03 06:19:55;;;;;;;18.13;16.85;;;;;;;10.37;52.30;103002.25;4999060;28;20087;-73
2023/04/03 06:22:21;;;;;;;14.60;13.80;;;;;;;10.35;52.24;103004.31;5010360;28;20029;-73
2023/04/03 06:24:46;;;;;;;15.65;14.65;;;;;;;10.32;52.20;103000.13;5010916;28;20050;-74
2023/04/03 06:27:12;;;;;;;15.10;14.20;;;;;;;10.32;52.30;103010.91;5002613;28;20034;-74
2023/04/03 06:29:37;;;;;;;15.80;14.32;;;;;;;10.31;52.25;103003.84;5011047;28;20037;-74
2023/04/03 06:32:03;;;;;;;16.27;15.13;;;;;;;10.30;52.43;103002.16;4992464;28;20069;-74
2023/04/03 06:34:28;;;;;;;15.38;14.27;;;;;;;10.29;52.48;103015.88;5004628;28;20039;-73
2023/04/03 06:36:54;;;;;;;16.42;15.25;;;;;;;10.29;52.29;103005.06;4991768;28;20042;-77
2023/04/03 06:39:22;;;;;;;16.00;14.90;;;;;;;10.27;52.23;103012.47;4988809;28;20063;-74
2023/04/03 06:41:47;;;;;;;16.13;15.13;;;;;;;10.26;52.23;103024.31;5003247;28;20119;-73
2023/04/03 06:44:15;;;;;;;14.85;13.93;;;;;;;10.24;52.19;103015.56;5000053;28;20640;-73
2023/04/03 06:46:42;;;;;;;15.68;14.52;;;;;;;10.21;52.26;103021.34;5005670;28;20040;-73
2023/04/03 06:49:08;;;;;;;17.77;15.93;;;;;;;10.19;52.13;103018.78;5000531;28;20097;-73
2023/04/03 06:51:35;;;;;;;16.48;15.25;;;;;;;10.18;52.30;103015.25;5005634;28;20493;-73
2023/04/03 06:54:01;;;;;;;15.65;14.65;;;;;;;10.17;52.25;103020.84;5007287;28;20034;-75
2023/04/03 06:56:27;;;;;;;14.77;13.88;;;;;;;10.16;52.33;103022.72;5006920;28;20034;-72
2023/04/03 06:58:55;;;;;;;16.23;15.05;;;;;;;10.16;52.15;103025.41;4987594;28;20444;-78
2023/04/03 07:01:21;;;;;;;15.07;14.15;;;;;;;10.13;52.05;103028.47;4975276;28;20053;-74
2023/04/03 07:03:47;;;;;;;15.48;14.55;;;;;;;10.14;52.00;103032.00;5008435;28;20594;-73
2023/04/03 07:06:14;;;;;;;16.33;15.10;;;;;;;10.11;52.10;103030.53;5007880;28;20025;-74
2023/04/03 07:08:40;;;;;;;14.38;13.27;;;;;;;10.10;52.02;103026.13;5004594;28;20087;-74
2023/04/03 07:11:06;;;;;;;17.85;16.17;;;;;;;10.10;52.08;103033.41;5008629;28;20030;-73
2023/04/03 07:13:32;;;;;;;15.73;14.75;;;;;;;10.08;52.06;103039.00;5008122;28;20570;-73
2023/04/03 07:15:58;;;;;;;14.90;13.93;;;;;;;10.07;51.98;103025.66;5006597;28;20018;-74
2023/04/03 07:18:23;;;;;;;14.40;13.50;;;;;;;10.05;51.77;103041.22;5004381;28;20077;-72
2023/04/03 07:20:49;;;;;;;14.98;14.07;;;;;;;10.03;51.98;103040.53;5007362;28;20037;-76
2023/04/03 07:23:15;;;;;;;15.77;14.77;;;;;;;10.03;51.64;103043.25;5003376;28;20061;-73
2023/04/03 07:25:50;;;;;;;15.27;14.35;;;;;;;10.01;51.83;103042.63;5003631;28;20068;-75
2023/04/03 07:28:18;;;;;;;14.45;13.55;;;;;;;10.01;51.82;103045.31;5004268;28;20232;-78
2023/04/03 07:30:48;;;;;;;15.50;14.50;;;;;;;10.00;51.72;103049.84;5006449;28;20057;-73
2023/04/03 07:33:15;;;;;;;17.50;16.25;;;;;;;10.00;51.95;103040.91;5005952;28;20041;-73
2023/04/03 07:35:42;;;;;;;14.20;13.35;;;;;;;10.00;51.81;103036.34;5005130;28;20133;-72
2023/04/03 07:38:08;;;;;;;15.43;14.25;;;;;;;10.01;51.60;103042.63;5004124;28;20033;-75
2023/04/03 07:40:33;;;;;;;15.95;14.85;;;;;;;10.00;51.61;103044.44;4985354;28;20364;-72
2023/04/03 07:42:59;;;;;;;15.25;14.20;;;;;;;10.01;51.75;103045.31;5005944;28;20068;-73
2023/04/03 07:45:25;;;;;;;15.68;14.73;;;;;;;10.00;51.53;103047.16;5001888;28;20453;-77
2023/04/03 07:47:51;;;;;;;14.82;13.82;;;;;;;10.02;51.68;103053.22;5006265;28;20108;-72
2023/04/03 07:50:17;;;;;;;16.90;15.57;;;;;;;10.03;51.57;103049.50;5005903;28;20482;-73
2023/04/03 07:52:42;;;;;;;13.85;13.05;;;;;;;10.05;51.64;103052.00;5009443;28;20030;-72
2023/04/03 07:55:08;;;;;;;16.20;14.95;;;;;;;10.06;51.38;103051.84;4991608;28;20486;-71
2023/04/03 07:57:33;;;;;;;15.10;14.07;;;;;;;10.08;51.31;103048.94;5007152;28;20041;-73
2023/04/03 07:59:59;;;;;;;15.50;14.52;;;;;;;10.09;51.45;103050.63;5009353;28;22656;-78
2023/04/03 08:02:25;;;;;;;14.88;13.88;;;;;;;10.10;51.30;103053.13;5009432;28;20192;-71
2023/04/03 08:04:50;;;;;;;16.25;15.25;;;;;;;10.12;51.43;103052.97;4992894;28;20135;-72
2023/04/03 08:07:16;;;;;;;17.33;16.05;;;;;;;10.14;51.31;103061.72;5008218;28;20037;-71
2023/04/03 08:09:41;;;;;;;14.75;13.85;;;;;;;10.17;51.38;103056.78;4992397;28;20045;-75
2023/04/03 08:12:07;;;;;;;16.00;14.75;;;;;;;10.18;51.49;103060.34;5009476;28;20033;-72
2023/04/03 08:14:34;;;;;;;16.85;15.65;;;;;;;10.19;51.36;103062.84;4991973;28;20112;-72
2023/04/03 08:17:00;;;;;;;14.23;13.43;;;;;;;10.22;51.47;103066.22;5005759;28;20037;-71
2023/04/03 08:19:26;;;;;;;16.05;14.95;;;;;;;10.24;51.60;103059.59;5010102;28;20030;-72
2023/04/03 08:21:52;;;;;;;15.77;14.45;;;;;;;10.28;51.67;103071.75;5007333;28;20037;-74
2023/04/03 08:24:20;;;;;;;16.67;15.52;;;;;;;10.29;51.49;103075.28;5004422;28;20026;-73
2023/04/03 08:26:46;;;;;;;14.48;13.60;;;;;;;10.31;51.06;103068.69;4994268;28;20053;-74
2023/04/03 08:29:11;;;;;;;16.05;15.05;;;;;;;10.32;51.20;103053.31;5004410;28;20069;-74
2023/04/03 08:31:36;;;;;;;15.30;14.40;;;;;;;10.36;51.48;103065.44;5006974;28;20042;-73
2023/04/03 08:34:02;;;;;;;16.30;15.23;;;;;;;10.39;51.44;103071.28;4988224;28;20061;-72
2023/04/03 08:36:29;;;;;;;16.90;15.80;;;;;;;10.44;51.69;103075.31;4992040;28;20453;-73
2023/04/03 08:38:56;;;;;;;15.63;14.40;;;;;;;10.47;51.65;103083.88;4990948;28;20521;-73
2023/04/03 08:41:30;;;;;;;18.25;17.05;;;;;;;10.50;51.72;103072.69;5006613;28;20117;-72
2023/04/03 08:44:10;;;;;;;16.10;15.02;;;;;;;10.54;51.48;103076.72;5003872;28;20457;-71
2023/04/03 08:46:45;;;;;;;16.02;14.98;;;;;;;10.56;51.54;103076.56;5003155;28;20081;-77
2023/04/03 08:49:23;;;;;;;17.13;15.95;;;;;;;10.60;51.58;103078.66;5007364;28;20049;-77
2023/04/03 08:51:50;;;;;;;15.43;14.57;;;;;;;10.64;51.79;103076.44;5007407;28;20036;-74
2023/04/03 08:54:50;;;;;;;17.88;16.55;;;;;;;10.65;51.46;103080.81;5008884;28;20293;-74
2023/04/03 08:57:19;;;;;;;16.17;15.07;;;;;;;10.70;51.56;103078.41;5004067;28;20076;-73
2023/04/03 08:59:44;;;;;;;15.60;14.30;;;;;;;10.74;51.53;103073.47;5007322;28;20110;-73
2023/04/03 09:02:28;;;;;;;17.15;15.68;;;;;;;10.79;51.45;103076.47;5007369;28;20038;-78
2023/04/03 09:04:54;;;;;;;14.18;13.38;;;;;;;10.82;51.64;103076.06;5009042;28;20030;-72
2023/04/03 09:07:31;;;;;;;17.10;15.90;;;;;;;10.86;51.73;103074.69;5007926;28;20099;-73
2023/04/03 09:10:00;;;;;;;16.45;15.20;;;;;;;10.89;51.78;103076.19;5008204;28;20091;-71
2023/04/03 09:12:31;;;;;;;17.55;16.35;;;;;;;10.94;51.77;103079.16;5004395;28;20651;-72
2023/04/03 09:15:18;;;;;;;16.52;15.55;;;;;;;10.98;51.91;103080.44;5007985;28;20444;-72
2023/04/03 09:17:44;;;;;;;14.88;14.07;;;;;;;10.99;51.73;103079.44;5006285;28;20037;-73
2023/04/03 09:20:39;;;;;;;16.35;15.32;;;;;;;11.03;51.84;103078.84;5004889;28;20033;-72
2023/04/03 09:23:26;;;;;;;16.90;15.95;;;;;;;11.06;51.75;103083.03;5009269;28;20474;-72
2023/04/03 09:26:00;;;;;;;14.82;14.02;;;;;;;11.07;51.86;103079.31;5004835;28;20117;-75
2023/04/03 09:28:27;;;;;;;18.13;16.75;;;;;;;11.09;51.89;103071.84;5007749;28;20033;-72
2023/04/03 09:30:53;;;;;;;14.75;13.93;;;;;;;11.14;51.89;103069.44;5002944;28;20041;-72
2023/04/03 09:33:21;;;;;;;16.90;15.82;;;;;;;11.18;51.79;103062.59;5003897;28;20038;-73
2023/04/03 09:35:48;;;;;;;16.87;15.63;;;;;;;11.21;51.85;103058.66;5007663;28;20042;-75
2023/04/03 09:38:13;;;;;;;17.88;16.50;;;;;;;11.24;51.74;103064.56;4998054;28;20030;-74
2023/04/03 09:40:43;;;;;;;14.88;14.07;;;;;;;11.29;51.89;103058.56;5008937;28;20044;-72
2023/04/03 09:43:26;;;;;;;15.35;14.50;;;;;;;11.31;51.76;103052.94;5006534;28;20033;-80
2023/04/03 09:45:52;;;;;;;15.23;14.38;;;;;;;11.32;51.91;103052.78;4987845;28;20050;-71
2023/04/03 09:48:28;;;;;;;17.30;15.65;;;;;;;11.35;51.68;103054.25;5005465;28;20033;-73
2023/04/03 09:50:56;;;;;;;15.70;14.80;;;;;;;11.37;51.89;103049.50;4989848;28;20041;-71
2023/04/03 09:53:38;;;;;;;16.73;15.67;;;;;;;11.39;51.96;103050.97;4999638;28;20034;-73
2023/04/03 09:56:28;;;;;;;17.40;16.10;;;;;;;11.41;51.97;103048.06;4988246;28;20128;-74
2023/04/03 09:58:59;;;;;;;15.73;14.82;;;;;;;11.44;52.13;103048.53;5006389;28;20030;-77
2023/04/03 10:01:34;;;;;;;17.67;16.58;;;;;;;11.45;51.37;103055.63;5003986;28;20030;-73
2023/04/03 10:04:12;;;;;;;16.05;15.15;;;;;;;11.48;51.23;103043.56;4991847;28;20026;-72
2023/04/03 10:06:58;;;;;;;16.05;15.15;;;;;;;11.50;51.46;103052.34;5009376;28;20061;-73
2023/04/03 10:09:28;;;;;;;17.80;16.60;;;;;;;11.57;51.62;103047.00;5003318;28;20969;-73
2023/04/03 10:12:04;;;;;;;17.52;16.42;;;;;;;11.60;51.63;103046.63;5009320;28;20022;-73
2023/04/03 10:14:35;;;;;;;17.52;16.42;;;;;;;11.63;51.59;103046.22;4988523;28;20031;-73
2023/04/03 10:17:14;;;;;;;17.55;16.30;;;;;;;11.67;51.45;103050.22;4991749;28;20177;-73
2023/04/03 10:19:48;;;;;;;;;;;;;;;11.62;51.73;103042.69;4988974;28;20038;-73
2023/04/03 10:22:22;;;;;;;15.75;14.23;;;;;;;11.65;51.43;103034.16;5007805;28;19963;-74
2023/04/03 10:25:13;;;;;;;15.73;14.70;;;;;;;11.66;51.50;103033.13;5009606;28;20080;-73
2023/04/03 10:27:49;;;;;;;18.00;16.92;;;;;;;11.72;51.47;103034.25;5003904;28;20026;-70
2023/04/03 10:30:36;;;;;;;15.60;14.70;;;;;;;11.75;51.21;103036.56;5004316;28;20107;-76
2023/04/03 10:33:17;;;;;;;16.88;15.82;;;;;;;11.74;51.50;103034.03;5004132;28;20061;-73
2023/04/03 10:36:09;;;;;;;17.88;16.45;;;;;;;11.79;51.51;103037.84;5009017;28;20048;-74
2023/04/03 10:39:26;;;;;;;18.20;17.10;;;;;;;11.83;51.26;103027.44;5004447;28;20018;-73
2023/04/03 10:42:25;;;;;;;16.20;15.30;;;;;;;11.85;51.51;103022.69;5003676;28;20099;-72
2023/04/03 10:45:01;;;;;;;16.73;15.73;;;;;;;11.87;51.44;103024.19;5003762;28;20080;-81
2023/04/03 10:47:29;;;;;;;16.75;15.68;;;;;;;11.88;50.60;103017.72;5008121;28;20030;-71
2023/04/03 10:50:18;;;;;;;15.07;14.25;;;;;;;11.90;50.01;103007.56;5005348;28;20561;-72
2023/04/03 10:52:57;;;;;;;15.55;14.73;;;;;;;11.93;50.14;103013.63;4975176;28;20053;-76
2023/04/03 10:55:25;;;;;;;;;;;;;;;11.90;50.19;103012.13;5006705;28;20033;-74
2023/04/03 10:57:56;;;;;;;15.50;14.50;;;;;;;11.93;50.05;103022.56;5000938;28;19956;-73
2023/04/03 11:00:37;;;;;;;17.08;16.05;;;;;;;11.98;50.07;103013.84;5006898;28;20026;-79
2023/04/03 11:03:17;;;;;;;14.98;14.18;;;;;;;11.99;49.95;103008.22;5000985;28;20040;-73
2023/04/03 11:05:51;;;;;;;16.40;15.40;;;;;;;12.01;50.17;103008.88;5006669;28;20509;-73
2023/04/03 11:08:29;;;;;;;16.90;16.00;;;;;;;12.03;49.84;103003.28;5003331;28;20101;-81
2023/04/03 11:11:00;;;;;;;18.08;16.88;;;;;;;12.06;49.95;103006.41;5004962;28;20108;-74
2023/04/03 11:13:48;;;;;;;17.02;16.02;;;;;;;12.06;49.88;103002.88;5003249;28;20525;-72
2023/04/03 11:16:24;;;;;;;17.65;16.65;;;;;;;12.08;50.38;102995.38;5002670;28;20041;-72